• Join FlightAware (Why Join?)
  • Login
  • US Flag 
12:58AM EDT


 

Airport Tracker/Info


-or-


 

Live Flight TrackerFlight Track Log ✈ RPA3284 ✈ 05-Jul-2013 ✈ KCLT - KALB

Flight Track Log - Related Links

Times and Time Zones

All times are in EDT time to prevent confusion due to time zone crossing. See the RPA3284 flight status page for this flight to view local times or setup timezone preferences in your user account.

Time Position Orientation Groundspeed Altitude Reporting Facility
EDT Latitude Longitude Course Direction KTS MPH feet Rate Location/Type
05:56PM 35.1908 -80.9356 72° East 154 177 1,800  Level Atlanta Center
05:58PM 35.1094 -80.9311 177° South 238 274 4,600 2,520 Climbing Atlanta Center
05:59PM 35.1274 -80.6151 29° Northeast  Level FlightAware Approximate
05:59PM 35.0297 -80.9214 174° South 283 326 8,300  Level Atlanta Center
06:00PM 35.2288 -80.5461 30° Northeast  Level FlightAware Approximate
06:00PM 35.0131 -80.8333 103° East 310 357 11,000  Level Atlanta Center
06:01PM 35.3173 -80.4667 North  Level FlightAware Approximate
06:01PM 35.0289 -80.7261 80° East 340 391 13,600  Level Atlanta Center
06:02PM 35.3641 -80.3501 72° East  Level FlightAware Approximate
06:02PM 35.0392 -80.6472 81° East 384 442 14,000  Level Atlanta Center
06:03PM 35.0569 -80.5322 79° East 361 415 15,200 1,800 Climbing Atlanta Center
06:04PM 35.0681 -80.4150 83° East 348 400 17,600 1,980 Climbing Atlanta Center
06:06PM 35.1519 -80.1797 66° East 374 430 21,300 1,800 Climbing Washington Center
06:07PM 35.2108 -80.0636 58° Northeast 396 456 23,100 1,680 Climbing Washington Center
06:08PM 35.2733 -79.9475 57° Northeast 402 463 24,700 1,560 Climbing Washington Center
06:09PM 35.3361 -79.8261 58° Northeast 402 463 26,300 1,440 Climbing Washington Center
06:10PM 35.4011 -79.7047 57° Northeast 408 470 27,700 1,320 Climbing Washington Center
06:11PM 35.4678 -79.5806 57° Northeast 423 487 29,000 1,320 Climbing Washington Center
06:12PM 35.5303 -79.4561 58° Northeast 429 494 30,300 1,080 Climbing Washington Center
06:13PM 35.5972 -79.3214 59° Northeast 437 503 31,200 1,020 Climbing Washington Center
06:14PM 35.6658 -79.1917 57° Northeast 437 503 32,400 1,140 Climbing Washington Center
06:15PM 35.7303 -79.0617 59° Northeast 437 503 33,600 1,140 Climbing Washington Center
06:16PM 35.8011 -78.9186 59° Northeast 437 503 34,800 660 Climbing Washington Center
06:17PM 35.8672 -78.7883 58° Northeast 437 503 35,000 60 Climbing Washington Center
06:18PM 35.9311 -78.6600 58° Northeast 437 503 35,000  Level Washington Center
06:19PM 35.9928 -78.5264 60° Northeast 437 503 35,000  Level Washington Center
06:20PM 36.0564 -78.4003 58° Northeast 437 503 35,000  Level Washington Center
06:21PM 36.1178 -78.2686 60° Northeast 437 503 35,000  Level Washington Center
06:22PM 36.1833 -78.1344 59° Northeast 437 503 35,000  Level Washington Center
06:23PM 36.2486 -78.0003 59° Northeast 437 503 35,000  Level Washington Center
06:24PM 36.3097 -77.8731 59° Northeast 437 503 35,000  Level Washington Center
06:25PM 36.3747 -77.7383 59° Northeast 442 509 35,000  Level Washington Center
06:26PM 36.4289 -77.6183 61° Northeast 442 509 35,000  Level Washington Center
06:27PM 36.4939 -77.4806 60° Northeast 442 509 35,000  Level Washington Center
06:28PM 36.5564 -77.3478 60° Northeast 442 509 35,000  Level Washington Center
06:29PM 36.6186 -77.2119 60° Northeast 442 509 35,000  Level Washington Center
06:30PM 36.6831 -77.0758 59° Northeast 442 509 35,000  Level Washington Center
06:31PM 36.7822 -76.9767 39° Northeast 436 502 35,000  Level Washington Center
06:32PM 36.8917 -76.9008 29° Northeast 441 507 35,000  Level Washington Center
06:33PM 37.0072 -76.8169 30° Northeast 459 528 35,000  Level Washington Center
06:34PM 37.1228 -76.7328 30° Northeast 476 548 35,000  Level Washington Center
06:35PM 37.2508 -76.6381 30° Northeast 485 558 35,000  Level Washington Center
06:36PM 37.3683 -76.5536 30° Northeast 485 558 35,000  Level Washington Center
06:37PM 37.4839 -76.4711 30° Northeast 485 558 35,000  Level Washington Center
06:38PM 37.6011 -76.3861 30° Northeast 485 558 35,000  Level Washington Center
06:39PM 37.7164 -76.3006 30° Northeast 485 558 35,000  Level Washington Center
06:40PM 37.8358 -76.2150 29° Northeast 485 558 35,000  Level Washington Center
06:41PM 37.9508 -76.1289 31° Northeast 485 558 35,000  Level Washington Center
06:42PM 38.0681 -76.0428 30° Northeast 485 558 35,000  Level Washington Center
06:43PM 38.1831 -75.9564 31° Northeast 485 558 35,000  Level Washington Center
06:44PM 38.2875 -75.8747 32° Northeast 485 558 35,000  Level Washington Center
06:45PM 38.4064 -75.7903 29° Northeast 490 564 35,000  Level Washington Center
06:46PM 38.5214 -75.7058 30° Northeast 490 564 35,000  Level Washington Center
06:47PM 38.6361 -75.6183 31° Northeast 490 564 35,000  Level Washington Center
06:48PM 38.7547 -75.5306 30° Northeast 485 558 35,000  Level Washington Center
06:49PM 38.8672 -75.4317 34° Northeast 490 564 35,000  Level Washington Center
06:50PM 38.9797 -75.3325 34° Northeast 490 564 35,000  Level Washington Center
06:51PM 39.0900 -75.2386 33° Northeast 485 558 35,000  Level Washington Center
06:52PM 39.2125 -75.1228 36° Northeast 490 564 35,000  Level Washington Center
06:53PM 39.3225 -75.0175 37° Northeast 490 564 35,000  Level Washington Center
06:54PM 39.4325 -74.9172 35° Northeast 490 564 35,000  Level Washington Center
06:56PM 39.6494 -74.7181 35° Northeast 522 601 35,000  Level New York Center
06:57PM 39.7611 -74.6164 35° Northeast 493 567 35,000 -360 Level New York Center
06:58PM 39.8642 -74.5219 35° Northeast 506 582 34,300 -1,020 Descending New York Center
06:59PM 39.9889 -74.4042 36° Northeast 513 590 33,000 -660 Descending New York Center
07:00PM 40.1006 -74.2958 37° Northeast 502 578 33,000  Level New York Center
07:01PM 40.2142 -74.1903 35° Northeast 502 578 33,000  Level New York Center
07:02PM 40.3317 -74.0900 33° Northeast 502 578 33,000 -60 Level New York Center
07:03PM 40.4469 -73.9892 34° Northeast 502 578 32,900 -540 Descending New York Center
07:04PM 40.5622 -73.8881 34° Northeast 502 578 32,000 -1,020 Descending New York Center
07:05PM 40.6708 -73.7944 33° Northeast 502 578 30,900 -2,100 Descending New York Center
07:07PM 40.9358 -73.5692 33° Northeast 500 575 25,300 -2,220 Descending Boston Center
07:08PM 41.0819 -73.5664 North 456 525 23,800 -1,260 Descending Boston Center
07:09PM 41.2047 -73.5603 North 456 525 22,800 -1,020 Descending Boston Center
07:10PM 41.3300 -73.5542 North 456 525 21,800 -1,020 Descending Boston Center
07:11PM 41.4508 -73.5478 North 444 511 20,800 -1,080 Descending Boston Center
07:12PM 41.5550 -73.5497 359° North 433 498 19,700 -1,620 Descending Boston Center
07:13PM 41.6678 -73.5433 North 408 470 17,600 -2,220 Descending Boston Center
07:14PM 41.7908 -73.5372 North 402 463 15,300 -2,100 Descending Boston Center
07:15PM 41.8867 -73.5333 North 392 451 13,400 -2,100 Descending Boston Center
07:16PM 41.9867 -73.5294 North 370 426 11,500 -1,380 Descending Boston Center
07:17PM 42.0742 -73.5281 North 360 414 11,000 -300 Descending Boston Center
07:18PM 42.1806 -73.5300 359° North 358 412 11,000 -240 Level Boston Center
07:19PM 42.2739 -73.5764 340° North 325 374 10,500 -960 Descending Boston Center
07:20PM 42.3608 -73.6175 341° North 268 308 9,000 -1,560 Descending Boston Center
07:21PM 42.4336 -73.6383 348° North 269 310 7,300 -1,560 Descending Boston Center
07:22PM 42.5086 -73.6539 351° North 267 307 5,900 -1,320 Descending Boston Center
07:23PM 42.5750 -73.6694 350° North 267 307 4,700 -960 Descending Boston Center
07:24PM 42.6542 -73.6908 349° North 267 307 4,000 -840 Descending Boston Center
07:25PM 42.7308 -73.7119 349° North 255 293 3,100 -900 Descending Boston Center